This is the latest recevied weather packets stored in our database for station/object K4IR. If no packets are shown the sender has not sent any weather packets the latest 10 day(s).
| Time | Temp. | Humidity | Pressure | Rain* | Wind** | Luminosity | Snow |
|---|---|---|---|---|---|---|---|
| 1787714130 | 21.11° C | 98% | 1018.1 hPa | 0 mm | - | 0 W/m² | - |
| 1787713527 | 21.67° C | 98% | 1018.1 hPa | 0 mm | - | 0 W/m² | - |
| 1787712925 | 21.67° C | 98% | 1018.4 hPa | 0 mm | - | 0 W/m² | - |
| 1787712321 | 21.67° C | 97% | 1018.4 hPa | 0 mm | - | 0 W/m² | - |
| 1787711722 | 21.67° C | 97% | 1018.2 hPa | 0 mm | - | 0 W/m² | - |
| 1787711119 | 22.22° C | 97% | 1018.3 hPa | 0 mm | - | 0 W/m² | - |
| 1787710517 | 22.22° C | 97% | 1018.3 hPa | 0 mm | - | 0 W/m² | - |
| 1787709913 | 22.22° C | 97% | 1018.3 hPa | 0 mm | - | 0 W/m² | - |
| 1787709310 | 22.22° C | 96% | 1018.2 hPa | 0 mm | - | 0 W/m² | - |
| 1787708708 | 22.22° C | 96% | 1018.1 hPa | 0 mm | - | 0 W/m² | - |
| 1787708103 | 22.22° C | 96% | 1018 hPa | 0 mm | - | 0 W/m² | - |
| 1787707499 | 22.78° C | 96% | 1018.1 hPa | 0 mm | - | 0 W/m² | - |
| 1787706895 | 22.78° C | 95% | 1017.8 hPa | 0 mm | - | 0 W/m² | - |
| 1787706291 | 22.78° C | 95% | 1017.7 hPa | 0 mm | - | 0 W/m² | - |
| 1787705692 | 23.33° C | 94% | 1017.8 hPa | 0 mm | - | 0 W/m² | - |
| 1787705089 | 23.33° C | 94% | 1018 hPa | 0 mm | - | 0 W/m² | - |
| 1787704486 | 23.33° C | 93% | 1017.7 hPa | 0 mm | - | 0 W/m² | - |
| 1787703887 | 23.89° C | 92% | 1017.5 hPa | 0 mm | - | 0 W/m² | - |
| 1787703282 | 24.44° C | 90% | 1017.3 hPa | 0 mm | - | 0 W/m² | - |
| 1787702679 | 25° C | 89% | 1016.9 hPa | 0 mm | - | 0 W/m² | - |
| 1787702079 | 25° C | 86% | 1017 hPa | 0 mm | - | 1 W/m² | - |
| 1787701476 | 25.56° C | 84% | 1017.3 hPa | 0 mm | - | 4 W/m² | - |
| 1787700874 | 26.11° C | 82% | 1017.2 hPa | 0 mm | - | 9 W/m² | - |
| 1787700271 | 26.67° C | 79% | 1017.3 hPa | 0 mm | - | 15 W/m² | - |
| 1787699668 | 27.78° C | 75% | 1017.2 hPa | 0 mm | - | 23 W/m² | - |
* Rain latest hour (hover to see other rain measurements)
** Current wind speed in m/s (hover to see current wind gust speed)